KSHV/SHV METAR and TAF weather

Enter ICAO airport designator
Station Type Date Time Source
KSHV METAR 2020/09/21 08:56 UTC NOAA

KSHV 210856Z 07006KT 10SM OVC035 23/14 A3006 RMK AO2 SLP176 T02280144 56007


Station Type Date Time Source
KSHV Decoded METAR 2020/09/21 08:56 UTC NOAA

SHREVEPORT REGIONAL AIRPORT, LA, United States (KSHV) 32-27N 93-50W 80M
Sep 21, 2020 - 04:56 AM EDT / 2020.09.21 0856 UTC
Wind: from the ENE (070 degrees) at 7 MPH (6 KT):0
Visibility: 10 mile(s):0
Sky conditions: overcast
Temperature: 73.0 F (22.8 C)
Dew Point: 57.9 F (14.4 C)
Relative Humidity: 59%
Pressure (altimeter): 30.06 in. Hg (1017 hPa)
Pressure tendency: 0.02 inches (0.7 hPa) lower than three hours ago
ob: KSHV 210856Z 07006KT 10SM OVC035 23/14 A3006 RMK AO2 SLP176 T02280144 56007
cycle: 9

Station Type Date Time Source
KSHV TAF 2020/09/21 06:42 UTC NOAA

TAF KSHV 210540Z 2106/2206 06007KT P6SM OVC070
FM211000 06010KT P6SM VCSH BKN025
TEMPO 2111/2115 06010G15KT 4SM -SHRA BKN015
FM211500 07011G16KT 3SM -SHRA BKN007
FM211800 06014KT 2SM -RA BR OVC004
FM220000 06011KT 1SM BR OVC004

Example: see airport list